createdAt,value
2023-03-18T00:00:21.013Z,96.40
2023-03-18T00:02:48.559Z,96.27
2023-03-18T00:05:15.694Z,96.19
2023-03-18T00:07:43.097Z,96.28
2023-03-18T00:10:12.063Z,96.39
2023-03-18T00:12:41.545Z,96.37
2023-03-18T00:15:12.512Z,96.50
2023-03-18T00:17:41.281Z,96.39
2023-03-18T00:20:10.033Z,96.32
2023-03-18T00:22:38.038Z,96.45
2023-03-18T00:25:07.818Z,96.51
2023-03-18T00:27:40.004Z,96.49
2023-03-18T00:30:08.068Z,96.53
2023-03-18T00:32:37.304Z,96.71
2023-03-18T00:35:04.964Z,96.82
2023-03-18T00:37:33.437Z,96.91
2023-03-18T00:40:06.524Z,97.09
2023-03-18T00:42:40.160Z,97.30
2023-03-18T00:45:11.025Z,97.26
2023-03-18T00:47:38.678Z,97.33
2023-03-18T00:50:08.577Z,97.32
2023-03-18T00:52:36.422Z,97.47
2023-03-18T00:55:05.043Z,97.40
2023-03-18T00:57:32.223Z,97.50
2023-03-18T00:59:59.662Z,97.46
2023-03-18T01:02:30.716Z,97.49
2023-03-18T01:04:57.975Z,97.40
2023-03-18T01:07:25.611Z,97.45
2023-03-18T01:09:55.369Z,97.39
2023-03-18T01:12:22.847Z,97.30
2023-03-18T01:14:49.877Z,97.52
2023-03-18T01:17:16.912Z,97.59
2023-03-18T01:19:44.550Z,97.69
2023-03-18T01:22:11.521Z,97.99
2023-03-18T01:24:45.131Z,97.76
2023-03-18T01:27:12.968Z,97.84
2023-03-18T01:29:42.203Z,98.01
2023-03-18T01:32:16.144Z,98.10
2023-03-18T01:34:44.242Z,98.20
2023-03-18T01:37:11.688Z,98.38
2023-03-18T01:39:41.242Z,98.18
2023-03-18T01:42:18.089Z,98.41
2023-03-18T01:44:46.549Z,98.46
2023-03-18T01:47:16.636Z,98.36
2023-03-18T01:49:52.392Z,98.40
2023-03-18T01:52:27.131Z,98.45
2023-03-18T01:54:59.657Z,98.74
2023-03-18T01:57:30.167Z,98.72
2023-03-18T01:59:57.510Z,98.68
2023-03-18T02:02:26.257Z,98.93
2023-03-18T02:04:56.551Z,98.92
2023-03-18T02:07:27.970Z,98.91
2023-03-18T02:10:00.025Z,98.94
2023-03-18T02:12:36.919Z,98.84
2023-03-18T02:15:12.082Z,98.98
2023-03-18T02:17:43.211Z,99.14
2023-03-18T02:20:27.857Z,99.31
2023-03-18T02:23:07.045Z,99.22
2023-03-18T02:25:39.253Z,99.22
2023-03-18T02:28:10.700Z,99.26
2023-03-18T02:30:41.864Z,99.21
2023-03-18T02:33:11.913Z,99.21
2023-03-18T02:35:40.162Z,99.30
2023-03-18T02:38:07.193Z,99.28
2023-03-18T02:40:37.703Z,99.26
2023-03-18T02:43:27.521Z,99.33
2023-03-18T02:46:31.523Z,99.48
2023-03-18T02:49:01.834Z,99.45
2023-03-18T02:51:30.589Z,99.31
2023-03-18T02:54:04.738Z,99.31
2023-03-18T02:56:31.997Z,99.24
2023-03-18T02:59:00.562Z,99.20
2023-03-18T03:01:30.006Z,99.27
2023-03-18T03:03:57.214Z,99.32
2023-03-18T03:06:25.483Z,99.51
2023-03-18T03:08:52.436Z,99.48
2023-03-18T03:11:22.000Z,99.51
2023-03-18T03:13:51.258Z,99.45
2023-03-18T03:16:20.133Z,99.33
2023-03-18T03:18:47.587Z,99.66
2023-03-18T03:21:15.418Z,99.49
2023-03-18T03:23:43.987Z,99.64
2023-03-18T03:26:11.754Z,99.74
2023-03-18T03:28:38.798Z,99.86
2023-03-18T03:31:06.878Z,99.71
2023-03-18T03:33:36.699Z,99.75
2023-03-18T03:36:04.054Z,99.90
2023-03-18T03:38:31.826Z,99.90
2023-03-18T03:40:58.780Z,100.00
2023-03-18T03:43:25.956Z,99.98
2023-03-18T03:45:53.029Z,99.74
2023-03-18T03:48:19.829Z,99.72
2023-03-18T03:50:47.740Z,99.87
2023-03-18T03:53:14.779Z,99.90
2023-03-18T03:55:41.808Z,99.74
2023-03-18T03:58:09.585Z,99.70
2023-03-18T04:00:38.290Z,99.76
2023-03-18T04:03:05.815Z,99.83
2023-03-18T04:05:33.197Z,99.76
2023-03-18T04:08:01.215Z,99.61
2023-03-18T04:10:36.724Z,99.68
2023-03-18T04:13:06.434Z,99.85
2023-03-18T04:15:34.309Z,99.77
2023-03-18T04:18:08.268Z,99.95
2023-03-18T04:20:37.973Z,99.59
2023-03-18T04:23:11.350Z,99.70
2023-03-18T04:25:38.346Z,99.60
2023-03-18T04:28:05.349Z,99.67
2023-03-18T04:30:51.743Z,99.55
2023-03-18T04:33:21.200Z,99.45
2023-03-18T04:35:49.053Z,99.45
2023-03-18T04:38:18.773Z,99.59
2023-03-18T04:40:48.202Z,99.59
2023-03-18T04:43:15.404Z,99.73
2023-03-18T04:45:43.752Z,99.78
2023-03-18T04:48:11.453Z,99.71
2023-03-18T04:50:41.136Z,99.94
2023-03-18T04:53:12.373Z,100.00
2023-03-18T04:55:40.161Z,100.00
2023-03-18T04:58:09.265Z,99.99
2023-03-18T05:00:41.184Z,100.00
2023-03-18T05:03:22.898Z,100.00
2023-03-18T05:05:50.639Z,99.81
2023-03-18T05:08:21.676Z,99.86
2023-03-18T05:10:50.623Z,99.72
2023-03-18T05:13:18.695Z,99.93
2023-03-18T05:15:46.215Z,99.80
2023-03-18T05:18:13.055Z,99.58
2023-03-18T05:20:41.826Z,99.54
2023-03-18T05:23:11.982Z,99.60
2023-03-18T05:25:49.662Z,99.25
2023-03-18T05:28:18.344Z,99.32
2023-03-18T05:30:53.791Z,99.08
2023-03-18T05:33:23.116Z,98.86
2023-03-18T05:35:55.856Z,98.50
2023-03-18T05:38:29.280Z,98.00
2023-03-18T05:40:56.650Z,97.57
2023-03-18T05:43:31.783Z,97.24
2023-03-18T05:45:59.558Z,96.91
2023-03-18T05:48:38.830Z,96.75
2023-03-18T05:51:06.925Z,96.72
2023-03-18T05:53:36.304Z,95.54
2023-03-18T05:56:18.329Z,94.58
2023-03-18T05:58:49.963Z,93.57
2023-03-18T06:01:27.379Z,93.93
2023-03-18T06:03:55.434Z,93.91
2023-03-18T06:06:22.383Z,93.15
2023-03-18T06:08:49.481Z,92.80
2023-03-18T06:11:17.102Z,93.00
2023-03-18T06:13:45.165Z,93.39
2023-03-18T06:16:12.756Z,93.59
2023-03-18T06:18:40.760Z,93.72
2023-03-18T06:21:10.045Z,92.68
2023-03-18T06:23:37.786Z,92.58
2023-03-18T06:26:05.304Z,92.41
2023-03-18T06:28:37.557Z,91.93
2023-03-18T06:31:10.829Z,92.14
2023-03-18T06:33:39.119Z,91.02
2023-03-18T06:36:08.910Z,90.58
2023-03-18T06:38:38.295Z,89.88
2023-03-18T06:41:05.418Z,88.93
2023-03-18T06:43:37.642Z,88.07
2023-03-18T06:46:05.421Z,87.75
2023-03-18T06:48:33.008Z,87.08
2023-03-18T06:51:00.377Z,87.05
2023-03-18T06:53:36.431Z,86.69
2023-03-18T06:56:06.164Z,86.73
2023-03-18T06:58:43.839Z,86.48
2023-03-18T07:01:12.631Z,85.73
2023-03-18T07:03:42.808Z,84.62
2023-03-18T07:06:12.059Z,83.96
2023-03-18T07:08:40.670Z,83.76
2023-03-18T07:11:08.144Z,83.62
2023-03-18T07:13:40.332Z,82.75
2023-03-18T07:16:13.816Z,81.94
2023-03-18T07:18:40.690Z,81.91
2023-03-18T07:21:07.616Z,81.63
2023-03-18T07:23:34.436Z,80.94
2023-03-18T07:26:01.835Z,80.93
2023-03-18T07:28:29.036Z,81.11
2023-03-18T07:30:56.586Z,80.64
2023-03-18T07:33:24.287Z,80.40
2023-03-18T07:35:51.570Z,80.23
2023-03-18T07:38:19.073Z,80.40
2023-03-18T07:40:46.454Z,80.30
2023-03-18T07:43:13.264Z,79.32
2023-03-18T07:45:41.220Z,80.17
2023-03-18T07:48:08.141Z,80.57
2023-03-18T07:50:35.156Z,80.44
2023-03-18T07:53:02.524Z,80.31
2023-03-18T07:55:30.364Z,80.20
2023-03-18T07:57:57.550Z,80.29
2023-03-18T08:00:25.751Z,80.08
2023-03-18T08:02:53.125Z,79.30
2023-03-18T08:05:20.006Z,78.43
2023-03-18T08:07:46.896Z,77.57
2023-03-18T08:10:15.124Z,76.85
2023-03-18T08:12:52.758Z,76.13
2023-03-18T08:15:22.463Z,75.67
2023-03-18T08:17:50.679Z,76.10
2023-03-18T08:20:18.171Z,75.65
2023-03-18T08:22:46.072Z,75.31
2023-03-18T08:25:14.490Z,74.93
2023-03-18T08:27:41.335Z,75.18
2023-03-18T08:30:10.156Z,75.27
2023-03-18T08:32:37.634Z,73.63
2023-03-18T08:35:05.317Z,74.19
2023-03-18T08:37:32.720Z,73.80
2023-03-18T08:40:00.386Z,73.84
2023-03-18T08:42:27.835Z,72.74
2023-03-18T08:44:55.096Z,72.21
2023-03-18T08:47:22.237Z,71.94
2023-03-18T08:49:52.383Z,70.97
2023-03-18T08:52:19.937Z,71.03
2023-03-18T08:54:47.918Z,70.87
2023-03-18T08:57:16.336Z,70.19
2023-03-18T08:59:43.225Z,70.07
2023-03-18T09:02:19.542Z,70.40
2023-03-18T09:04:48.241Z,68.47
2023-03-18T09:07:16.896Z,67.80
2023-03-18T09:09:46.568Z,67.59
2023-03-18T09:12:14.421Z,66.79
2023-03-18T09:14:42.693Z,65.50
2023-03-18T09:17:09.887Z,64.53
2023-03-18T09:19:37.527Z,63.07
2023-03-18T09:22:04.551Z,60.38
2023-03-18T09:24:31.761Z,60.54
2023-03-18T09:26:59.992Z,60.21
2023-03-18T09:29:27.768Z,59.00
2023-03-18T09:31:55.810Z,58.68
2023-03-18T09:34:23.118Z,58.37
2023-03-18T09:36:51.684Z,59.07
2023-03-18T09:39:22.271Z,57.42
2023-03-18T09:42:37.782Z,56.15
2023-03-18T09:45:16.605Z,55.87
2023-03-18T09:48:44.609Z,55.86
2023-03-18T09:51:41.896Z,56.85
2023-03-18T09:54:31.061Z,56.01
2023-03-18T09:56:58.528Z,56.96
2023-03-18T09:59:36.003Z,56.11
2023-03-18T10:02:06.548Z,55.97
2023-03-18T10:04:37.077Z,55.18
2023-03-18T10:07:13.244Z,56.09
2023-03-18T10:09:47.261Z,54.42
2023-03-18T10:12:24.071Z,54.02
2023-03-18T10:15:07.248Z,55.04
2023-03-18T10:18:24.150Z,50.33
2023-03-18T10:21:11.176Z,52.06
2023-03-18T10:23:49.788Z,50.46
2023-03-18T10:26:27.755Z,51.54
2023-03-18T10:29:03.965Z,50.61
2023-03-18T10:31:43.223Z,47.24
2023-03-18T10:34:14.752Z,49.86
2023-03-18T10:36:58.369Z,48.30
2023-03-18T10:39:30.639Z,48.41
2023-03-18T10:42:07.656Z,47.64
2023-03-18T10:44:39.981Z,47.55
2023-03-18T10:47:19.139Z,48.83
2023-03-18T10:49:57.554Z,47.61
2023-03-18T10:52:37.148Z,47.85
2023-03-18T10:55:16.240Z,47.92
2023-03-18T10:57:43.460Z,45.34
2023-03-18T11:00:34.543Z,41.77
2023-03-18T11:03:02.701Z,43.07
2023-03-18T11:05:37.879Z,44.88
2023-03-18T11:08:28.931Z,46.28
2023-03-18T11:10:55.892Z,46.81
2023-03-18T11:13:23.545Z,47.07
2023-03-18T11:15:52.490Z,47.89
2023-03-18T11:18:25.550Z,48.48
2023-03-18T11:21:03.418Z,47.74
2023-03-18T11:24:07.497Z,48.14
2023-03-18T11:27:18.470Z,47.67
2023-03-18T11:29:55.780Z,46.77
2023-03-18T11:32:34.198Z,47.69
2023-03-18T11:35:03.502Z,46.21
2023-03-18T11:37:40.138Z,46.05
2023-03-18T11:40:19.198Z,46.56
2023-03-18T11:42:48.990Z,43.88
2023-03-18T11:45:37.754Z,44.91
2023-03-18T11:48:09.869Z,46.19
2023-03-18T11:50:53.841Z,46.69
2023-03-18T11:53:35.243Z,45.72
2023-03-18T11:56:31.710Z,45.17
2023-03-18T11:59:25.063Z,45.65
2023-03-18T12:02:07.890Z,44.60
2023-03-18T12:04:53.815Z,44.71
2023-03-18T12:07:38.079Z,46.16
2023-03-18T12:10:24.515Z,47.14
2023-03-18T12:12:52.207Z,46.85
2023-03-18T12:15:34.789Z,46.51
2023-03-18T12:18:10.742Z,47.26
2023-03-18T12:20:50.657Z,46.98
2023-03-18T12:23:40.164Z,45.71
2023-03-18T12:26:25.364Z,44.37
2023-03-18T12:29:51.266Z,44.91
2023-03-18T12:32:18.143Z,45.65
2023-03-18T12:35:06.605Z,44.23
2023-03-18T12:37:47.874Z,43.40
2023-03-18T12:41:01.452Z,43.43
2023-03-18T12:43:40.509Z,42.51
2023-03-18T12:46:31.852Z,43.51
2023-03-18T12:49:25.386Z,44.10
2023-03-18T12:52:08.326Z,43.45
2023-03-18T12:55:07.667Z,44.85
2023-03-18T12:57:40.752Z,45.40
2023-03-18T13:00:52.386Z,44.36
2023-03-18T13:03:38.826Z,44.23
2023-03-18T13:06:15.757Z,45.21
2023-03-18T13:08:55.226Z,45.01
2023-03-18T13:11:40.788Z,44.81
2023-03-18T13:14:14.884Z,43.50
2023-03-18T13:16:42.546Z,46.07
2023-03-18T13:19:11.915Z,43.81
2023-03-18T13:21:55.450Z,43.67
2023-03-18T13:24:44.781Z,42.06
2023-03-18T13:27:37.969Z,40.30
2023-03-18T13:30:11.033Z,41.68
2023-03-18T13:32:57.005Z,41.91
2023-03-18T13:35:39.402Z,40.93
2023-03-18T13:38:11.999Z,43.63
2023-03-18T13:40:45.301Z,42.35
2023-03-18T13:43:16.520Z,41.14
2023-03-18T13:45:46.792Z,42.34
2023-03-18T13:48:18.466Z,42.29
2023-03-18T13:50:48.697Z,39.25
2023-03-18T13:53:25.474Z,40.26
2023-03-18T13:55:59.647Z,41.27
2023-03-18T13:58:36.256Z,42.23
2023-03-18T14:01:16.132Z,41.98
2023-03-18T14:03:46.613Z,42.26
2023-03-18T14:06:16.664Z,41.87
2023-03-18T14:08:44.055Z,41.68
2023-03-18T14:11:17.070Z,41.48
2023-03-18T14:13:47.608Z,41.28
2023-03-18T14:16:30.943Z,41.91
2023-03-18T14:19:06.752Z,40.99
2023-03-18T14:21:34.307Z,41.90
2023-03-18T14:24:20.994Z,42.07
2023-03-18T14:27:08.726Z,41.24
2023-03-18T14:29:45.666Z,42.68
2023-03-18T14:32:34.299Z,42.57
2023-03-18T14:35:28.329Z,42.73
2023-03-18T14:38:26.062Z,43.48
2023-03-18T14:40:56.047Z,44.22
2023-03-18T14:43:34.509Z,45.21
2023-03-18T14:46:06.132Z,43.07
2023-03-18T14:48:34.507Z,42.18
2023-03-18T14:51:05.188Z,42.40
2023-03-18T14:53:37.800Z,40.51
2023-03-18T14:56:05.703Z,40.51
2023-03-18T14:58:34.451Z,41.62
2023-03-18T15:01:09.988Z,41.36
2023-03-18T15:03:42.534Z,43.14
2023-03-18T15:06:20.593Z,42.66
2023-03-18T15:08:56.785Z,40.67
2023-03-18T15:11:24.262Z,41.55
2023-03-18T15:13:56.860Z,42.79
2023-03-18T15:16:25.380Z,42.65
2023-03-18T15:18:55.038Z,43.44
2023-03-18T15:21:30.792Z,42.72
2023-03-18T15:24:03.534Z,43.16
2023-03-18T15:26:35.227Z,44.68
2023-03-18T15:29:24.217Z,42.98
2023-03-18T15:31:52.947Z,43.61
2023-03-18T15:34:30.873Z,43.28
2023-03-18T15:37:03.517Z,43.61
2023-03-18T15:39:40.939Z,43.21
2023-03-18T15:42:17.309Z,42.99
2023-03-18T15:44:46.576Z,43.13
2023-03-18T15:47:17.230Z,44.47
2023-03-18T15:49:53.321Z,45.29
2023-03-18T15:52:31.594Z,42.67
2023-03-18T15:54:58.810Z,43.04
2023-03-18T15:57:35.411Z,41.42
2023-03-18T16:00:09.940Z,41.59
2023-03-18T16:02:40.636Z,40.82
2023-03-18T16:05:18.280Z,43.20
2023-03-18T16:07:46.850Z,41.18
2023-03-18T16:10:22.749Z,42.76
2023-03-18T16:12:55.284Z,41.94
2023-03-18T16:15:25.085Z,42.50
2023-03-18T16:17:54.121Z,42.38
2023-03-18T16:20:24.245Z,43.32
2023-03-18T16:22:52.058Z,45.03
2023-03-18T16:25:19.489Z,45.21
2023-03-18T16:27:48.918Z,46.37
2023-03-18T16:30:20.231Z,48.56
2023-03-18T16:32:47.865Z,47.27
2023-03-18T16:35:16.487Z,47.07
2023-03-18T16:37:48.887Z,48.56
2023-03-18T16:40:24.963Z,48.78
2023-03-18T16:42:53.238Z,51.26
2023-03-18T16:45:25.549Z,49.49
2023-03-18T16:47:57.550Z,49.14
2023-03-18T16:50:30.803Z,50.40
2023-03-18T16:52:58.875Z,52.53
2023-03-18T16:55:26.885Z,52.15
2023-03-18T16:58:02.542Z,51.37
2023-03-18T17:00:32.230Z,52.16
2023-03-18T17:03:00.537Z,54.25
2023-03-18T17:05:28.545Z,56.22
2023-03-18T17:07:55.939Z,55.88
2023-03-18T17:10:26.226Z,56.70
2023-03-18T17:12:57.701Z,56.27
2023-03-18T17:15:29.610Z,54.98
2023-03-18T17:17:59.772Z,56.82
2023-03-18T17:20:30.508Z,56.63
2023-03-18T17:22:58.339Z,57.06
2023-03-18T17:25:28.152Z,57.73
2023-03-18T17:28:01.389Z,59.09
2023-03-18T17:30:40.061Z,59.05
2023-03-18T17:33:22.354Z,57.06
2023-03-18T17:35:49.422Z,56.96
2023-03-18T17:38:16.584Z,57.63
2023-03-18T17:40:44.444Z,59.18
2023-03-18T17:43:19.568Z,59.27
2023-03-18T17:45:47.809Z,59.67
2023-03-18T17:48:22.063Z,59.89
2023-03-18T17:50:51.669Z,61.15
2023-03-18T17:53:29.993Z,61.67
2023-03-18T17:55:58.063Z,61.49
2023-03-18T17:58:31.402Z,61.97
2023-03-18T18:01:20.398Z,62.84
2023-03-18T18:03:48.000Z,63.75
2023-03-18T18:06:23.720Z,62.88
2023-03-18T18:08:50.901Z,63.54
2023-03-18T18:11:23.941Z,65.00
2023-03-18T18:13:53.677Z,63.12
2023-03-18T18:16:21.625Z,65.06
2023-03-18T18:18:50.017Z,66.46
2023-03-18T18:21:20.527Z,66.51
2023-03-18T18:23:48.772Z,65.63
2023-03-18T18:26:20.434Z,66.39
2023-03-18T18:28:49.937Z,66.55
2023-03-18T18:31:17.870Z,67.16
2023-03-18T18:33:46.049Z,68.07
2023-03-18T18:36:14.297Z,67.60
2023-03-18T18:38:41.576Z,68.58
2023-03-18T18:41:09.702Z,68.91
2023-03-18T18:43:36.850Z,69.51
2023-03-18T18:46:04.299Z,69.81
2023-03-18T18:48:39.193Z,69.83
2023-03-18T18:51:06.360Z,69.62
2023-03-18T18:53:38.099Z,69.48
2023-03-18T18:56:20.903Z,70.31
2023-03-18T18:58:48.841Z,70.48
2023-03-18T19:01:16.099Z,70.57
2023-03-18T19:03:43.703Z,70.63
2023-03-18T19:06:27.262Z,71.67
2023-03-18T19:08:57.032Z,70.95
2023-03-18T19:11:25.921Z,71.40
2023-03-18T19:14:14.762Z,71.66
2023-03-18T19:16:42.549Z,72.59
2023-03-18T19:19:13.728Z,72.56
2023-03-18T19:21:41.231Z,73.09
2023-03-18T19:24:28.080Z,73.12
2023-03-18T19:27:04.279Z,72.47
2023-03-18T19:29:32.757Z,71.73
2023-03-18T19:32:01.470Z,72.02
2023-03-18T19:34:32.076Z,72.96
2023-03-18T19:37:02.704Z,73.55
2023-03-18T19:39:30.203Z,73.99
2023-03-18T19:41:57.310Z,74.50
2023-03-18T19:44:26.520Z,74.82
2023-03-18T19:46:56.409Z,74.85
2023-03-18T19:49:26.480Z,74.83
2023-03-18T19:51:54.152Z,74.65
2023-03-18T19:54:28.304Z,74.05
2023-03-18T19:56:57.228Z,73.50
2023-03-18T19:59:33.584Z,72.71
2023-03-18T20:02:05.140Z,73.23
2023-03-18T20:04:32.090Z,72.92
2023-03-18T20:06:59.006Z,73.39
2023-03-18T20:09:26.180Z,73.25
2023-03-18T20:12:04.402Z,73.76
2023-03-18T20:14:38.297Z,73.69
2023-03-18T20:17:45.059Z,73.95
2023-03-18T20:20:24.112Z,74.22
2023-03-18T20:22:54.088Z,73.62
2023-03-18T20:25:30.642Z,73.40
2023-03-18T20:27:58.365Z,74.56
2023-03-18T20:30:27.829Z,74.61
2023-03-18T20:32:55.584Z,74.50
2023-03-18T20:35:27.126Z,74.50
2023-03-18T20:37:59.249Z,75.30
2023-03-18T20:40:28.787Z,75.07
2023-03-18T20:42:55.894Z,75.28
2023-03-18T20:45:24.683Z,75.25
2023-03-18T20:47:51.758Z,75.58
2023-03-18T20:50:29.898Z,76.23
2023-03-18T20:52:58.712Z,75.76
2023-03-18T20:55:27.122Z,75.84
2023-03-18T20:57:54.570Z,75.83
2023-03-18T21:00:27.388Z,76.44
2023-03-18T21:02:57.575Z,76.23
2023-03-18T21:05:26.288Z,76.94
2023-03-18T21:07:53.643Z,77.07
2023-03-18T21:10:24.009Z,76.97
2023-03-18T21:12:51.708Z,77.32
2023-03-18T21:15:20.590Z,77.42
2023-03-18T21:17:47.896Z,77.30
2023-03-18T21:20:22.960Z,77.33
2023-03-18T21:22:51.397Z,77.58
2023-03-18T21:25:24.623Z,77.82
2023-03-18T21:27:52.603Z,77.87
2023-03-18T21:30:22.132Z,78.10
2023-03-18T21:32:50.541Z,78.51
2023-03-18T21:35:21.803Z,78.30
2023-03-18T21:37:49.364Z,78.61
2023-03-18T21:40:19.305Z,78.88
2023-03-18T21:42:46.854Z,78.84
2023-03-18T21:45:16.840Z,79.01
2023-03-18T21:47:43.849Z,79.10
2023-03-18T21:50:26.146Z,78.95
2023-03-18T21:52:54.303Z,78.71
2023-03-18T21:55:22.059Z,78.87
2023-03-18T21:57:49.508Z,79.34
2023-03-18T22:00:20.230Z,79.10
2023-03-18T22:02:47.850Z,79.08
2023-03-18T22:05:21.927Z,79.43
2023-03-18T22:07:50.870Z,79.78
2023-03-18T22:10:23.318Z,79.62
2023-03-18T22:12:50.678Z,79.62
2023-03-18T22:15:36.495Z,80.11
2023-03-18T22:18:04.513Z,80.35
2023-03-18T22:20:32.869Z,80.53
2023-03-18T22:22:59.885Z,80.21
2023-03-18T22:25:33.722Z,79.87
2023-03-18T22:28:01.108Z,79.90
2023-03-18T22:30:30.842Z,79.85
2023-03-18T22:32:59.950Z,80.02
2023-03-18T22:35:29.296Z,80.16
2023-03-18T22:37:56.889Z,80.34
2023-03-18T22:40:26.329Z,80.66
2023-03-18T22:42:57.265Z,80.76
2023-03-18T22:45:33.165Z,80.65
2023-03-18T22:48:04.338Z,80.74
2023-03-18T22:50:33.893Z,80.74
2023-03-18T22:53:19.230Z,81.16
2023-03-18T22:55:47.012Z,81.27
2023-03-18T22:58:20.430Z,80.71
2023-03-18T23:00:48.288Z,80.67
2023-03-18T23:03:18.478Z,81.15
2023-03-18T23:05:47.058Z,80.62
2023-03-18T23:08:14.525Z,80.60
2023-03-18T23:10:42.808Z,81.07
2023-03-18T23:13:28.805Z,81.46
2023-03-18T23:15:56.939Z,81.25
2023-03-18T23:18:24.209Z,81.80
2023-03-18T23:20:52.363Z,81.60
2023-03-18T23:23:21.664Z,81.67
2023-03-18T23:25:49.539Z,81.65
2023-03-18T23:28:17.292Z,81.88
2023-03-18T23:30:48.259Z,82.24
2023-03-18T23:33:15.920Z,82.49
2023-03-18T23:35:44.186Z,82.42
2023-03-18T23:38:11.607Z,82.77
2023-03-18T23:40:38.722Z,82.78
2023-03-18T23:43:08.986Z,82.79
2023-03-18T23:45:39.744Z,82.64
2023-03-18T23:48:07.338Z,82.65
2023-03-18T23:50:34.470Z,83.05
2023-03-18T23:53:01.881Z,83.30
2023-03-18T23:55:34.594Z,83.45
2023-03-18T23:58:03.186Z,83.61
